Time;durP1;ratioP1;P1;durP2;ratioP2;P2;SDS_P1;SDS_P2;PMS_P1;PMS_P2;Temp;Humidity;BMP_temperature;BMP_pressure;BME280_temperature;BME280_humidity;BME280_pressure;Samples;Min_cycle;Max_cycle;Signal;HPM_P1;HPM_P2
2024/03/06 00:01:52;;;;;;;;;5.33;4.00;;;;;21.74;40.21;101615.41;6400181;22;45109;-76
2024/03/06 00:04:17;;;;;;;;;5.00;4.33;;;;;21.80;40.65;101629.00;6400299;22;47662;-75
2024/03/06 00:06:43;;;;;;;;;5.33;5.33;;;;;21.78;40.11;101626.47;6399666;22;59411;-75
2024/03/06 00:09:08;;;;;;;;;6.33;5.00;;;;;21.79;40.14;101637.91;6399947;22;45165;-76
2024/03/06 00:11:35;;;;;;;;;5.00;4.00;;;;;21.79;39.98;101630.81;6399498;22;52408;-76
2024/03/06 00:14:02;;;;;;;;;4.33;4.00;;;;;21.79;40.47;101632.63;6400057;22;45299;-72
2024/03/06 00:16:27;;;;;;;;;6.67;5.00;;;;;21.79;40.06;101627.31;6399670;22;45366;-75
2024/03/06 00:18:53;;;;;;;;;6.00;4.67;;;;;21.78;40.24;101634.44;6399920;22;45256;-76
2024/03/06 00:21:18;;;;;;;;;5.00;5.00;;;;;21.75;40.68;101629.47;6400265;22;45580;-75
2024/03/06 00:23:45;;;;;;;;;7.00;6.75;;;;;21.78;40.21;101637.06;6399928;22;45398;-76
2024/03/06 00:26:11;;;;;;;;;5.00;4.33;;;;;21.78;40.07;101642.38;6399810;22;46612;-76
2024/03/06 00:28:36;;;;;;;;;5.75;4.75;;;;;21.76;40.51;101636.41;6400286;22;45168;-76
2024/03/06 00:31:02;;;;;;;;;6.00;4.00;;;;;21.73;40.31;101637.56;6399513;22;45202;-76
2024/03/06 00:33:27;;;;;;;;;5.33;3.67;;;;;21.70;40.19;101635.22;6400481;22;45320;-75
2024/03/06 00:35:53;;;;;;;;;4.50;4.50;;;;;21.74;40.00;101633.09;6399722;22;45910;-76
2024/03/06 00:38:18;;;;;;;;;4.67;4.67;;;;;21.73;40.37;101642.84;6400158;22;45167;-76
2024/03/06 00:40:43;;;;;;;;;4.00;4.00;;;;;21.74;40.48;101643.69;6400321;22;45577;-75
2024/03/06 00:43:09;;;;;;;;;6.00;5.00;;;;;21.69;40.28;101638.03;6400245;22;45263;-76
2024/03/06 00:45:34;;;;;;;;;5.75;5.50;;;;;21.72;40.15;101638.56;6399140;22;46313;-74
2024/03/06 00:47:59;;;;;;;;;5.00;4.00;;;;;21.72;39.92;101641.22;6399574;22;45295;-76
2024/03/06 00:50:25;;;;;;;;;6.00;5.67;;;;;21.72;39.86;101643.88;6399486;22;60030;-76
2024/03/06 00:52:50;;;;;;;;;5.00;4.33;;;;;21.72;39.81;101654.47;6400260;22;45253;-76
2024/03/06 00:55:15;;;;;;;;;6.00;5.67;;;;;21.71;40.27;101652.78;6399254;22;68961;-76
2024/03/06 00:57:41;;;;;;;;;8.00;5.00;;;;;21.72;40.19;101662.41;6399750;22;45272;-76
2024/03/06 01:00:16;;;;;;;;;6.33;6.33;;;;;21.63;39.70;101650.09;6398818;22;53540;-76
2024/03/06 01:02:41;;;;;;;;;5.00;5.00;;;;;21.71;39.58;101663.38;6399569;22;45349;-75
2024/03/06 01:05:07;;;;;;;;;4.00;4.00;;;;;21.60;39.47;101645.94;6399818;22;45427;-72
2024/03/06 01:07:34;;;;;;;;;5.00;5.00;;;;;21.71;39.27;101666.03;6400148;22;45354;-76
2024/03/06 01:10:00;;;;;;;;;6.33;5.00;;;;;21.62;39.67;101651.09;6399809;22;45406;-72
2024/03/06 01:12:26;;;;;;;;;6.00;6.00;;;;;21.72;39.65;101662.41;6399413;22;45241;-76
2024/03/06 01:14:51;;;;;;;;;4.67;4.00;;;;;21.72;39.61;101658.91;6399250;22;47346;-76
2024/03/06 01:17:16;;;;;;;;;5.00;5.00;;;;;21.71;39.62;101660.72;6399379;22;45251;-76
2024/03/06 01:19:43;;;;;;;;;4.00;4.00;;;;;21.72;39.72;101659.75;6399809;22;47625;-76
2024/03/06 01:22:09;;;;;;;;;4.33;4.33;;;;;21.71;40.01;101651.94;6371161;22;45240;-76
2024/03/06 01:24:37;;;;;;;;;7.25;5.75;;;;;21.70;39.92;101656.41;6399005;22;47294;-73
2024/03/06 01:27:02;;;;;;;;;3.33;3.33;;;;;21.70;40.01;101661.72;6399475;22;46545;-76
2024/03/06 01:29:31;;;;;;;;;4.67;4.00;;;;;21.68;39.99;101655.75;6399164;22;45261;-76
2024/03/06 01:31:56;;;;;;;;;5.00;4.00;;;;;21.70;39.66;101663.56;6399251;22;45412;-76
2024/03/06 01:34:25;;;;;;;;;5.00;4.00;;;;;21.70;39.80;101658.25;6399556;22;46028;-76
2024/03/06 01:36:50;;;;;;;;;4.00;4.00;;;;;21.69;39.80;101648.63;6399299;22;45328;-75
2024/03/06 01:39:15;;;;;;;;;5.00;4.00;;;;;21.68;39.52;101652.25;6399707;22;45340;-76
2024/03/06 01:41:47;;;;;;;;;3.00;3.00;;;;;21.68;39.59;101655.75;6399894;22;45295;-74
2024/03/06 01:44:14;;;;;;;;;6.00;4.00;;;;;21.68;40.07;101654.91;6399102;22;46160;-76
2024/03/06 01:46:39;;;;;;;;;8.33;5.33;;;;;21.61;39.95;101646.78;6399045;22;45311;-76
2024/03/06 01:49:04;;;;;;;;;5.00;4.33;;;;;21.68;39.91;101654.91;6399654;22;45255;-76
2024/03/06 01:51:31;;;;;;;;;5.67;4.67;;;;;21.67;39.88;101662.03;6399857;22;45352;-74
2024/03/06 01:53:57;;;;;;;;;3.00;3.00;;;;;21.67;39.99;101662.03;6398236;22;45345;-72
2024/03/06 01:56:23;;;;;;;;;5.33;5.00;;;;;21.67;39.88;101653.28;6399346;22;45304;-76
2024/03/06 01:58:49;;;;;;;;;3.67;3.67;;;;;21.67;39.60;101655.91;6398913;22;45318;-76
2024/03/06 02:01:16;;;;;;;;;7.00;7.00;;;;;21.67;39.97;101656.75;6399549;22;45142;-76
2024/03/06 02:03:42;;;;;;;;;5.00;5.00;;;;;21.60;39.64;101647.75;6398905;22;46918;-76
2024/03/06 02:06:10;;;;;;;;;5.00;5.00;;;;;21.66;39.62;101652.44;6399428;22;45200;-76
2024/03/06 02:08:35;;;;;;;;;5.00;5.00;;;;;21.66;39.19;101663.03;6399756;22;45369;-75
2024/03/06 02:11:03;;;;;;;;;4.67;3.00;;;;;21.61;39.68;101652.06;6400407;22;53743;-75
2024/03/06 02:13:29;;;;;;;;;6.33;4.33;;;;;21.66;39.23;101663.03;6399918;22;46973;-76
2024/03/06 02:15:55;;;;;;;;;4.25;4.25;;;;;21.66;39.19;101660.38;6400696;22;45353;-74
2024/03/06 02:18:21;;;;;;;;;4.00;4.00;;;;;21.66;39.11;101663.03;6400805;22;45218;-76
2024/03/06 02:20:47;;;;;;;;;4.50;3.50;;;;;21.66;39.55;101651.59;6400645;22;45233;-76
2024/03/06 02:23:13;;;;;;;;;4.33;4.33;;;;;21.66;39.35;101655.09;6400774;22;45956;-76
2024/03/06 02:25:38;;;;;;;;;5.00;5.00;;;;;21.65;39.12;101656.06;6400362;22;45208;-75
2024/03/06 02:28:06;;;;;;;;;7.00;4.33;;;;;21.63;39.37;101653.56;6399958;22;45184;-75
2024/03/06 02:30:36;;;;;;;;;4.00;3.67;;;;;21.66;38.93;101649.78;6372083;22;45436;-75
2024/03/06 02:33:01;;;;;;;;;4.67;4.67;;;;;21.66;39.54;101656.88;6400138;22;47065;-75
2024/03/06 02:35:26;;;;;;;;;4.00;4.00;;;;;21.66;38.98;101656.88;6400884;22;45302;-75
2024/03/06 02:37:52;;;;;;;;;4.00;4.00;;;;;21.65;39.13;101657.91;6400473;22;45193;-75
2024/03/06 02:40:17;;;;;;;;;6.00;6.00;;;;;21.65;39.57;101658.69;6400682;22;45524;-75
2024/03/06 02:42:42;;;;;;;;;3.33;3.33;;;;;21.62;39.45;101651.09;6400134;22;45244;-76
2024/03/06 02:45:08;;;;;;;;;5.75;5.00;;;;;21.66;39.66;101662.19;6400030;22;57717;-76
2024/03/06 02:47:34;;;;;;;;;5.00;5.00;;;;;21.64;39.50;101662.34;6400964;22;45365;-76
2024/03/06 02:49:59;;;;;;;;;6.00;5.00;;;;;21.64;39.48;101662.34;6400880;22;45370;-75
2024/03/06 02:52:25;;;;;;;;;4.00;4.00;;;;;21.63;39.15;101664.16;6399526;22;58539;-75
2024/03/06 02:54:50;;;;;;;;;5.00;4.00;;;;;21.63;39.16;101663.34;6400596;22;48580;-75
2024/03/06 02:57:15;;;;;;;;;4.00;3.75;;;;;21.63;39.18;101671.28;6399823;22;51483;-75
2024/03/06 02:59:40;;;;;;;;;8.00;3.00;;;;;21.63;39.31;101664.16;6399203;22;45236;-75
2024/03/06 03:02:06;;;;;;;;;4.33;4.33;;;;;21.61;39.09;101668.81;6400157;22;46295;-76
2024/03/06 03:04:31;;;;;;;;;5.00;5.00;;;;;;;;6399688;22;60881;-76
2024/03/06 03:06:57;;;;;;;;;6.00;5.00;;;;;21.60;39.24;101666.28;6400583;22;45302;-75
2024/03/06 03:09:23;;;;;;;;;5.33;5.33;;;;;21.63;38.76;101676.56;6400501;22;45363;-76
2024/03/06 03:11:48;;;;;;;;;3.33;3.33;;;;;21.62;38.87;101675.75;6400102;22;45374;-76
2024/03/06 03:14:14;;;;;;;;;4.00;3.67;;;;;21.63;38.99;101673.94;6400762;22;45316;-76
2024/03/06 03:16:39;;;;;;;;;5.75;4.00;;;;;21.62;38.90;101670.44;6400634;22;45270;-73
2024/03/06 03:19:04;;;;;;;;;4.00;4.00;;;;;21.62;39.42;101669.63;6400837;22;45257;-75
2024/03/06 03:21:30;;;;;;;;;3.00;3.00;;;;;21.61;39.25;101671.44;6400063;22;46832;-75
2024/03/06 03:23:55;;;;;;;;;5.33;5.33;;;;;21.62;39.31;101675.75;6399906;22;45227;-76
2024/03/06 03:26:21;;;;;;;;;4.00;4.00;;;;;21.61;39.18;101686.50;6400341;22;45228;-75
2024/03/06 03:28:46;;;;;;;;;7.00;4.00;;;;;21.62;39.12;101680.22;6399999;22;47621;-76
2024/03/06 03:31:11;;;;;;;;;5.75;5.75;;;;;21.61;39.03;101689.16;6399849;22;66597;-76
2024/03/06 03:33:40;;;;;;;;;4.00;4.00;;;;;21.60;38.84;101688.31;6400214;22;45157;-75
2024/03/06 03:36:09;;;;;;;;;3.33;3.33;;;;;21.60;39.35;101688.31;6400655;22;45354;-75
2024/03/06 03:38:38;;;;;;;;;4.00;4.00;;;;;21.52;38.99;101677.66;6400047;22;45409;-76
2024/03/06 03:41:06;;;;;;;;;4.00;3.67;;;;;21.58;39.15;101682.34;6399423;22;46157;-75
2024/03/06 03:43:33;;;;;;;;;5.67;5.33;;;;;21.60;39.15;101688.31;6400282;22;45327;-76
2024/03/06 03:45:58;;;;;;;;;5.00;4.25;;;;;21.60;39.09;101687.47;6400070;22;45347;-72
2024/03/06 03:48:24;;;;;;;;;6.00;3.33;;;;;21.59;38.88;101691.97;6399989;22;45421;-76
2024/03/06 03:50:49;;;;;;;;;4.33;4.33;;;;;21.60;38.85;101696.25;6399964;22;58307;-73
2024/03/06 03:53:15;;;;;;;;;4.33;4.33;;;;;21.60;38.70;101695.41;6400500;22;45292;-76
2024/03/06 03:55:41;;;;;;;;;3.00;3.00;;;;;21.60;39.11;101698.06;6399751;22;45408;-76
2024/03/06 03:58:06;;;;;;;;;4.67;4.67;;;;;21.59;38.68;101688.47;6400574;22;45413;-75
2024/03/06 04:00:32;;;;;;;;;3.33;3.33;;;;;21.60;39.11;101687.47;6371557;22;47931;-75
2024/03/06 04:02:57;;;;;;;;;4.67;4.67;;;;;21.60;38.60;101696.25;6400140;22;45384;-75
2024/03/06 04:05:23;;;;;;;;;5.33;3.33;;;;;21.52;39.01;101689.09;6400172;22;45267;-75
2024/03/06 04:07:48;;;;;;;;;7.00;4.00;;;;;21.60;39.10;101703.38;6400610;22;45367;-76
2024/03/06 04:10:13;;;;;;;;;6.67;5.00;;;;;21.60;38.65;101703.38;6399256;22;46321;-75
2024/03/06 04:12:39;;;;;;;;;7.67;3.00;;;;;21.59;39.17;101697.25;6399413;22;53229;-74
2024/03/06 04:15:05;;;;;;;;;4.67;4.33;;;;;21.59;38.72;101697.25;6400161;22;45781;-75
2024/03/06 04:17:30;;;;;;;;;3.00;3.00;;;;;21.52;38.75;101691.75;6400581;22;45254;-76
2024/03/06 04:19:55;;;;;;;;;5.00;4.67;;;;;21.60;38.77;101704.19;6399660;22;48834;-75
2024/03/06 04:22:22;;;;;;;;;5.33;3.33;;;;;21.52;39.21;101697.03;6399475;22;54903;-76
2024/03/06 04:24:47;;;;;;;;;6.00;6.00;;;;;21.60;39.12;101716.59;6400263;22;45576;-75
2024/03/06 04:27:12;;;;;;;;;7.00;4.00;;;;;21.59;39.01;101720.25;6399732;22;53088;-76
2024/03/06 04:29:37;;;;;;;;;5.00;5.00;;;;;21.51;38.77;101700.69;6399796;22;61126;-75
2024/03/06 04:32:03;;;;;;;;;5.33;4.00;;;;;21.58;38.70;101715.94;6399627;22;45332;-76
2024/03/06 04:34:29;;;;;;;;;4.00;4.00;;;;;21.58;39.25;101724.72;6400043;22;45334;-75
2024/03/06 04:36:54;;;;;;;;;5.50;4.00;;;;;21.58;39.24;101726.53;6400388;22;45210;-75
2024/03/06 04:39:19;;;;;;;;;4.00;4.00;;;;;21.56;38.71;101721.41;6399327;22;51856;-75
2024/03/06 04:41:45;;;;;;;;;3.00;3.00;;;;;21.57;39.14;101731.00;6399737;22;45214;-75
2024/03/06 04:44:10;;;;;;;;;4.00;3.33;;;;;21.58;38.79;101729.19;6399870;22;45106;-76
2024/03/06 04:46:35;;;;;;;;;3.67;3.00;;;;;21.57;39.22;101724.88;6400255;22;45416;-75
2024/03/06 04:49:01;;;;;;;;;4.00;4.00;;;;;21.57;39.09;101727.53;6400034;22;46325;-76
2024/03/06 04:51:26;;;;;;;;;4.67;4.00;;;;;21.51;38.94;101721.03;6400283;22;45233;-75
2024/03/06 04:53:51;;;;;;;;;5.00;5.00;;;;;21.56;38.87;101732.00;6398985;22;49229;-76
2024/03/06 04:56:18;;;;;;;;;4.00;4.00;;;;;21.56;38.87;101731.16;6399984;22;47055;-75
2024/03/06 04:58:44;;;;;;;;;3.00;3.00;;;;;21.51;38.91;101729.81;6399976;22;46204;-75
2024/03/06 05:01:11;;;;;;;;;4.67;4.67;;;;;21.56;38.87;101733.81;6399522;22;45323;-75
2024/03/06 05:03:38;;;;;;;;;4.00;4.00;;;;;21.56;39.25;101734.63;6400240;22;45310;-75
2024/03/06 05:06:05;;;;;;;;;4.00;3.67;;;;;21.57;38.65;101736.28;6399888;22;45257;-76
2024/03/06 05:08:30;;;;;;;;;9.00;6.00;;;;;21.57;38.85;101735.47;6398809;22;47062;-75
2024/03/06 05:10:56;;;;;;;;;7.00;5.00;;;;;21.56;38.85;101734.63;6399526;22;45159;-75
2024/03/06 05:13:22;;;;;;;;;5.00;4.67;;;;;21.57;38.96;101731.00;6399665;22;45182;-75
2024/03/06 05:15:47;;;;;;;;;5.75;5.50;;;;;21.53;38.89;101727.00;6400032;22;45206;-75
2024/03/06 05:18:13;;;;;;;;;7.00;6.67;;;;;21.58;39.05;101737.13;6399864;22;46039;-75
2024/03/06 05:20:38;;;;;;;;;4.33;4.33;;;;;21.52;39.03;101727.97;6399453;22;45119;-75
2024/03/06 05:23:03;;;;;;;;;5.50;4.50;;;;;21.57;38.60;101746.88;6399442;22;52474;-75
2024/03/06 05:25:29;;;;;;;;;7.67;7.00;;;;;21.58;38.58;101747.72;6399554;22;45248;-75
2024/03/06 05:27:54;;;;;;;;;5.67;4.00;;;;;21.57;38.46;101754.81;6398967;22;57757;-75
2024/03/06 05:30:19;;;;;;;;;6.00;5.00;;;;;21.57;38.97;101754.00;6399578;22;47560;-76
2024/03/06 05:32:46;;;;;;;;;6.00;6.00;;;;;21.57;39.17;101754.00;6400008;22;45220;-75
2024/03/06 05:35:12;;;;;;;;;4.33;4.33;;;;;21.58;38.95;101758.31;6398980;22;45226;-75
2024/03/06 05:37:37;;;;;;;;;6.00;4.00;;;;;21.56;39.29;101762.94;6399394;22;46039;-76
2024/03/06 05:40:04;;;;;;;;;5.25;5.25;;;;;21.56;39.26;101761.13;6399487;22;53800;-76
2024/03/06 05:42:30;;;;;;;;;5.00;4.00;;;;;21.55;38.89;101756.78;6399299;22;45204;-75
2024/03/06 05:45:00;;;;;;;;;7.00;5.67;;;;;21.57;39.08;101764.59;6400213;22;45397;-75
2024/03/06 05:47:26;;;;;;;;;7.67;5.67;;;;;21.55;39.32;101759.44;6400507;22;46371;-75
2024/03/06 05:49:51;;;;;;;;;5.25;5.25;;;;;21.56;39.29;101757.63;6400049;22;45305;-75
2024/03/06 05:52:16;;;;;;;;;8.75;6.50;;;;;21.46;38.92;101745.34;6401362;22;45320;-76
2024/03/06 05:54:42;;;;;;;;;8.33;4.67;;;;;21.55;39.18;101767.38;6399874;22;60488;-75
2024/03/06 05:57:07;;;;;;;;;8.00;5.67;;;;;21.56;39.11;101768.22;6400338;22;47020;-75
2024/03/06 05:59:32;;;;;;;;;7.00;5.33;;;;;21.47;38.78;101757.56;6401042;22;45614;-76
2024/03/06 06:01:58;;;;;;;;;6.67;6.67;;;;;21.55;39.10;101772.69;6401197;22;45300;-75
2024/03/06 06:04:23;;;;;;;;;5.00;5.00;;;;;21.55;38.99;101774.50;6400530;22;45376;-76
2024/03/06 06:06:48;;;;;;;;;6.33;6.33;;;;;21.54;38.71;101776.34;6400638;22;46939;-76
2024/03/06 06:09:15;;;;;;;;;7.25;6.50;;;;;21.55;38.81;101785.09;6399670;22;59132;-76
2024/03/06 06:11:42;;;;;;;;;8.00;6.00;;;;;21.55;39.15;101791.22;6400647;22;45259;-75
2024/03/06 06:14:07;;;;;;;;;8.00;7.00;;;;;21.56;39.04;101797.34;6400519;22;45461;-75
2024/03/06 06:16:40;;;;;;;;;6.00;4.33;;;;;21.55;38.71;101795.69;6400871;22;45276;-75
2024/03/06 06:19:06;;;;;;;;;6.00;5.00;;;;;21.51;39.13;101792.53;6399883;22;45292;-76
2024/03/06 06:21:32;;;;;;;;;7.67;5.67;;;;;21.50;38.94;101798.78;6400524;22;45243;-75
2024/03/06 06:23:57;;;;;;;;;6.00;4.67;;;;;21.56;38.82;101813.25;6400787;22;45273;-74
2024/03/06 06:26:22;;;;;;;;;6.67;5.33;;;;;21.54;39.06;101818.69;6400771;22;45536;-75
2024/03/06 06:28:48;;;;;;;;;9.75;5.75;;;;;21.55;38.67;101828.28;6400513;22;54995;-75
2024/03/06 06:31:13;;;;;;;;;6.33;6.33;;;;;21.53;38.82;101824.97;6399841;22;58253;-77
2024/03/06 06:33:38;;;;;;;;;7.50;7.00;;;;;21.51;38.81;101822.50;6399653;22;45399;-76
2024/03/06 06:36:04;;;;;;;;;5.00;5.00;;;;;21.58;39.15;101828.00;6398914;22;51404;-75
2024/03/06 06:38:30;;;;;;;;;6.00;4.67;;;;;21.60;39.66;101827.81;6399612;22;45299;-74
2024/03/06 06:40:56;;;;;;;;;2.33;1.00;;;;;21.63;39.84;101830.19;6371683;22;45378;-74
2024/03/06 06:43:21;;;;;;;;;4.00;4.00;;;;;21.50;39.49;101812.03;6399347;22;45292;-75
2024/03/06 06:45:46;;;;;;;;;7.00;6.00;;;;;21.65;39.79;101830.84;6399621;22;46091;-76
2024/03/06 06:48:12;;;;;;;;;4.67;2.67;;;;;21.63;39.77;101822.22;6399956;22;45327;-75
2024/03/06 06:50:38;;;;;;;;;7.00;6.00;;;;;21.59;39.97;101827.03;6400221;22;45393;-74
2024/03/06 06:53:03;;;;;;;;;5.00;5.00;;;;;21.70;39.91;101843.66;6399956;22;45411;-76
2024/03/06 06:55:29;;;;;;;;;5.00;5.00;;;;;21.69;40.10;101847.28;6399594;22;46072;-75
2024/03/06 06:57:54;;;;;;;;;5.67;5.67;;;;;21.61;39.78;101838.28;6399937;22;45322;-75
2024/03/06 07:00:22;;;;;;;;;7.00;5.67;;;;;21.72;39.73;101854.91;6400431;22;45265;-75
2024/03/06 07:02:48;;;;;;;;;6.67;6.00;;;;;21.61;39.61;101845.41;6399591;22;45339;-75
2024/03/06 07:05:14;;;;;;;;;4.67;4.67;;;;;21.70;39.89;101860.34;6399982;22;46143;-75
2024/03/06 07:07:39;;;;;;;;;5.33;3.67;;;;;21.67;40.01;101859.84;6400196;22;45315;-75
2024/03/06 07:10:05;;;;;;;;;6.00;4.00;;;;;21.70;39.64;101864.84;6399967;22;45305;-76
2024/03/06 07:12:31;;;;;;;;;5.50;5.25;;;;;21.70;39.67;101862.19;6399259;22;45249;-75
2024/03/06 07:14:57;;;;;;;;;10.50;5.75;;;;;21.51;39.51;101840.19;6400377;22;45253;-75
2024/03/06 07:17:23;;;;;;;;;6.50;6.50;;;;;21.60;39.79;101855.16;6371176;22;45349;-75
2024/03/06 07:19:48;;;;;;;;;5.00;5.00;;;;;21.68;40.18;101880.03;6400302;22;45252;-75
2024/03/06 07:22:13;;;;;;;;;6.67;5.00;;;;;21.68;39.98;101877.38;6400927;22;45331;-76
2024/03/06 07:24:39;;;;;;;;;6.00;6.00;;;;;21.66;39.57;101872.25;6400388;22;46095;-76
2024/03/06 07:27:04;;;;;;;;;6.00;4.67;;;;;21.64;40.21;101876.88;6400077;22;49839;-75
2024/03/06 07:29:30;;;;;;;;;6.33;5.00;;;;;21.66;39.59;101887.31;6400742;22;45236;-75
2024/03/06 07:31:55;;;;;;;;;9.00;6.67;;;;;21.66;39.73;101887.31;6400266;22;45348;-76
2024/03/06 07:34:21;;;;;;;;;5.00;3.33;;;;;21.65;40.07;101898.91;6371563;22;48259;-76
2024/03/06 07:36:47;;;;;;;;;7.00;6.00;;;;;21.63;39.83;101883.97;6400035;22;45265;-75
2024/03/06 07:39:15;;;;;;;;;7.00;5.67;;;;;21.64;39.94;101890.13;6400174;22;45214;-75
2024/03/06 07:41:41;;;;;;;;;8.33;5.67;;;;;21.63;39.69;101899.88;6400261;22;45389;-76
2024/03/06 07:44:08;;;;;;;;;4.75;4.25;;;;;21.62;39.86;101892.09;6399608;22;46393;-75
2024/03/06 07:46:33;;;;;;;;;8.33;5.00;;;;;21.61;40.01;101898.34;6399511;22;45329;-75
2024/03/06 07:48:58;;;;;;;;;7.00;4.00;;;;;21.60;39.70;101900.16;6400284;22;45326;-75
2024/03/06 07:51:24;;;;;;;;;8.00;6.67;;;;;21.60;39.86;101897.53;6399725;22;50565;-75
2024/03/06 07:53:50;;;;;;;;;6.00;5.00;;;;;21.60;39.35;101902.81;6399823;22;46173;-76
2024/03/06 07:56:15;;;;;;;;;6.67;5.67;;;;;21.60;39.42;101904.63;6399975;22;45263;-75
2024/03/06 07:58:41;;;;;;;;;9.33;6.67;;;;;21.60;39.81;101909.94;6400434;22;45150;-75
2024/03/06 08:01:07;;;;;;;;;8.00;5.75;;;;;21.49;39.42;101890.63;6400046;22;45449;-75
2024/03/06 08:03:33;;;;;;;;;8.00;6.00;;;;;21.59;39.54;101914.41;6399661;22;46150;-75
2024/03/06 08:05:59;;;;;;;;;9.67;6.00;;;;;21.60;39.46;101920.50;6394871;22;45700;-76
2024/03/06 08:08:24;;;;;;;;;7.75;6.25;;;;;21.59;39.25;101919.72;6399866;22;45307;-75
2024/03/06 08:10:50;;;;;;;;;8.25;6.00;;;;;21.60;39.48;101918.72;6400098;22;45271;-75
2024/03/06 08:13:15;;;;;;;;;8.00;7.00;;;;;21.52;39.58;101905.38;6399203;22;52475;-75
2024/03/06 08:15:44;;;;;;;;;10.50;7.25;;;;;21.60;39.53;101916.06;6399055;22;45327;-75
2024/03/06 08:18:09;;;;;;;;;6.67;6.00;;;;;21.61;39.26;101920.38;6399722;22;45100;-75
2024/03/06 08:20:34;;;;;;;;;7.33;5.67;;;;;21.62;39.32;101924.69;6400103;22;45405;-76
2024/03/06 08:23:00;;;;;;;;;10.25;7.50;;;;;21.61;39.36;101922.19;6399021;22;65744;-73
2024/03/06 08:25:25;;;;;;;;;12.67;6.67;;;;;21.56;39.51;101925.31;6399214;22;48811;-77
2024/03/06 08:27:50;;;;;;;;;6.33;6.33;;;;;21.61;39.17;101927.50;6399492;22;50269;-74
2024/03/06 08:30:16;;;;;;;;;10.00;6.00;;;;;21.61;39.68;101932.78;6399348;22;54968;-75
2024/03/06 08:32:43;;;;;;;;;8.00;5.00;;;;;21.60;39.37;101936.41;6399875;22;45410;-75
2024/03/06 08:35:11;;;;;;;;;10.00;7.00;;;;;21.59;39.25;101934.75;6399348;22;45460;-75
2024/03/06 08:37:37;;;;;;;;;6.75;6.75;;;;;21.27;39.69;101883.97;6399766;22;45381;-76
2024/03/06 08:40:03;;;;;;;;;7.00;5.33;;;;;21.60;39.30;101939.06;6399288;22;45461;-76
2024/03/06 08:42:29;;;;;;;;;9.00;6.00;;;;;21.59;39.42;101942.72;6399256;22;45273;-75
2024/03/06 08:44:54;;;;;;;;;8.67;7.67;;;;;21.49;39.41;101921.59;6399146;22;45377;-75
2024/03/06 08:47:19;;;;;;;;;8.00;7.00;;;;;21.49;39.47;101940.13;6400273;22;45271;-75
2024/03/06 08:49:45;;;;;;;;;6.00;5.75;;;;;21.50;39.50;101924.06;6400094;22;45364;-76
2024/03/06 08:52:11;;;;;;;;;8.00;5.00;;;;;21.58;39.29;101939.22;6399362;22;46219;-75
2024/03/06 08:54:37;;;;;;;;;10.00;8.00;;;;;21.59;39.63;101934.75;6399399;22;45363;-74
2024/03/06 08:57:03;;;;;;;;;8.50;8.00;;;;;21.52;39.17;101931.84;6399581;22;45284;-75
2024/03/06 08:59:29;;;;;;;;;7.50;5.50;;;;;21.59;39.63;101943.53;6399237;22;45459;-75
2024/03/06 09:01:55;;;;;;;;;8.33;6.67;;;;;21.58;39.79;101936.56;6399549;22;46063;-75
2024/03/06 09:04:21;;;;;;;;;8.00;6.50;;;;;21.58;39.27;101941.03;6399260;22;45291;-75
2024/03/06 09:06:46;;;;;;;;;8.00;6.75;;;;;21.58;39.36;101947.16;6399368;22;45299;-76
2024/03/06 09:09:14;;;;;;;;;8.33;6.67;;;;;21.59;39.42;101948.00;6399402;22;45414;-75
2024/03/06 09:11:43;;;;;;;;;9.67;7.33;;;;;21.56;39.54;101946.50;6335472;22;47043;-75
2024/03/06 09:14:11;;;;;;;;;10.33;8.00;;;;;21.58;39.50;101943.69;6334761;22;45343;-75
2024/03/06 09:16:36;;;;;;;;;8.67;8.67;;;;;21.58;39.61;101941.88;6335466;22;45308;-75
2024/03/06 09:19:02;;;;;;;;;13.33;7.67;;;;;21.59;39.56;101951.50;6335047;22;55757;-75
2024/03/06 09:21:28;;;;;;;;;9.00;6.33;;;;;21.59;39.64;101950.66;6335117;22;46131;-75
2024/03/06 09:23:53;;;;;;;;;8.33;8.00;;;;;21.59;39.62;101950.66;6335257;22;45375;-75
2024/03/06 09:26:18;;;;;;;;;9.33;6.33;;;;;21.56;39.59;101943.00;6335472;22;45261;-75
2024/03/06 09:28:44;;;;;;;;;9.00;5.33;;;;;21.60;39.65;101947.00;6335552;22;45515;-75
2024/03/06 09:31:09;;;;;;;;;6.33;6.33;;;;;21.60;39.62;101952.28;6335072;22;46627;-76
2024/03/06 09:33:34;;;;;;;;;7.00;7.00;;;;;21.59;39.19;101951.50;6335734;22;45501;-75
2024/03/06 09:36:00;;;;;;;;;9.67;6.00;;;;;21.58;39.60;101954.28;6335725;22;45252;-75
2024/03/06 09:38:25;;;;;;;;;9.67;6.00;;;;;21.61;39.47;101953.97;6335645;22;45402;-75
2024/03/06 09:40:51;;;;;;;;;10.00;6.00;;;;;21.60;39.45;101950.47;6335676;22;46172;-75
2024/03/06 09:43:17;;;;;;;;;10.33;9.00;;;;;21.60;39.50;101954.94;6334468;22;45170;-75
2024/03/06 09:45:49;;;;;;;;;9.33;8.67;;;;;21.60;39.33;101953.13;6335212;22;45331;-75
2024/03/06 09:48:18;;;;;;;;;8.00;8.00;;;;;21.62;39.01;101958.31;6335656;22;45175;-75
2024/03/06 09:50:46;;;;;;;;;8.33;7.33;;;;;21.60;39.02;101958.44;6333077;22;47316;-75
2024/03/06 09:53:15;;;;;;;;;14.00;9.67;;;;;21.62;38.90;101964.41;6335367;22;45331;-76
2024/03/06 09:55:42;;;;;;;;;8.33;8.00;;;;;21.62;38.99;101967.06;6335622;22;45253;-76
2024/03/06 09:58:08;;;;;;;;;7.33;6.67;;;;;21.62;39.15;101961.75;6334612;22;45393;-76
2024/03/06 10:00:35;;;;;;;;;7.67;7.00;;;;;21.56;39.31;101959.72;6333179;22;45993;-76
2024/03/06 10:03:08;;;;;;;;;10.67;7.00;;;;;21.63;38.87;101970.53;6334702;22;45343;-75
2024/03/06 10:05:34;;;;;;;;;8.00;6.00;;;;;21.61;38.75;101962.75;6334713;22;45295;-75
2024/03/06 10:08:01;;;;;;;;;14.00;9.33;;;;;21.63;38.97;101967.91;6334856;22;45366;-75
2024/03/06 10:10:26;;;;;;;;;7.25;7.25;;;;;21.63;39.31;101975.84;6348585;22;48098;-75
2024/03/06 10:12:52;;;;;;;;;11.00;7.00;;;;;21.58;39.33;101968.34;6366547;22;45310;-75
2024/03/06 10:15:18;;;;;;;;;13.25;9.25;;;;;21.59;38.61;101975.31;6367040;22;45359;-76
2024/03/06 10:17:45;;;;;;;;;9.00;8.00;;;;;21.63;39.02;101976.69;6366692;22;45423;-76
2024/03/06 10:20:24;;;;;;;;;11.67;7.67;;;;;21.63;39.35;101979.31;6364991;22;46086;-76
2024/03/06 10:22:53;;;;;;;;;8.33;7.67;;;;;21.62;39.09;101980.28;6366676;22;45513;-75
2024/03/06 10:25:20;;;;;;;;;10.00;8.00;;;;;21.65;39.38;101983.66;6366434;22;45346;-75
2024/03/06 10:27:46;;;;;;;;;9.75;6.75;;;;;21.64;38.90;101990.75;6366562;22;45185;-74
2024/03/06 10:30:15;;;;;;;;;10.00;7.33;;;;;21.64;38.83;101985.47;6367455;22;45797;-74
2024/03/06 10:32:43;;;;;;;;;8.75;7.75;;;;;21.63;39.36;101992.56;6368089;22;45273;-74
2024/03/06 10:35:18;;;;;;;;;8.00;8.00;;;;;21.63;39.35;101991.72;6368022;22;45401;-75
2024/03/06 10:37:45;;;;;;;;;9.75;8.75;;;;;21.63;38.84;101989.06;6367924;22;45329;-74
2024/03/06 10:40:15;;;;;;;;;9.00;9.00;;;;;21.62;39.44;101990.09;6367398;22;46370;-75
2024/03/06 10:42:42;;;;;;;;;13.00;9.00;;;;;21.56;39.56;101982.72;6368324;22;45335;-74
2024/03/06 10:45:11;;;;;;;;;12.67;9.00;;;;;21.60;39.08;101992.84;6367828;22;45308;-74
2024/03/06 10:47:38;;;;;;;;;9.00;8.00;;;;;21.62;39.46;101995.38;6368413;22;45208;-74
2024/03/06 10:50:08;;;;;;;;;11.25;8.50;;;;;21.57;39.12;101989.69;6367774;22;46002;-75
2024/03/06 10:52:34;;;;;;;;;13.67;8.67;;;;;21.55;39.23;101979.22;6367846;22;45317;-74
2024/03/06 10:55:00;;;;;;;;;11.00;8.25;;;;;21.51;39.39;101972.59;6368046;22;45306;-75
2024/03/06 10:57:27;;;;;;;;;12.67;9.00;;;;;21.59;39.58;101985.06;6367861;22;45369;-75
2024/03/06 10:59:52;;;;;;;;;9.67;9.00;;;;;21.59;38.95;101999.16;6367875;22;46131;-75
2024/03/06 11:02:18;;;;;;;;;15.00;8.00;;;;;21.46;39.18;101978.34;6367733;22;45354;-74
2024/03/06 11:04:44;;;;;;;;;8.50;8.25;;;;;21.57;39.52;102001.09;6368490;22;45520;-75
2024/03/06 11:07:10;;;;;;;;;7.25;7.25;;;;;21.59;39.14;101998.31;6368195;22;45409;-75
2024/03/06 11:09:40;;;;;;;;;7.50;6.00;;;;;21.52;39.08;101996.25;6372359;22;45331;-74
2024/03/06 11:12:06;;;;;;;;;8.00;7.25;;;;;21.59;39.62;102006.25;6399977;22;45188;-74
2024/03/06 11:14:32;;;;;;;;;7.75;7.25;;;;;21.48;39.33;101997.53;6400331;22;45300;-75
2024/03/06 11:16:59;;;;;;;;;9.50;6.50;;;;;21.58;39.42;102012.53;6399865;22;45377;-74
2024/03/06 11:19:25;;;;;;;;;11.75;8.25;;;;;21.50;38.81;101995.56;6399853;22;47229;-74